Aérodrome :
LOGIN :

S'inscrire | Disclaimer

   EN    FR    IT 

 










Légende :    VFR   VFR Marginal   IFR   IFR Intensif   IFR Très Intensif
Visi : 
Plafond : 
>= 8 km
>= 3000ft
5 à 8 km
1000 à 3000 ft
1500m à 5 km
500 à 1000 ft
800 à 1500m
200 à 500 ft
< 800m
< 200 ft
Symboles :   Orages  Brouillard  Fortes neiges  Fortes précipitations  Vent > 20 kt
SIGMETs :   Divers  Orages  Givrage  Turbulence  Onde Orograph.  Cendres Volcan.






- Altitude de l'aérodrome : 157 ft
- Code IATA : LIL


LFQQ - Lille Lesquin

DERNIER METAR :
  • 162200Z AUTO 00000KT CAVOK 14/10 Q1008 NOSIG

METARs EXPIRÉS :
  • 162130Z AUTO 19002KT 9999 FEW037 BKN150 14/10 Q1008 NOSIG
  • 162100Z AUTO 20004KT 9999 FEW036 BKN140 OVC160 14/09 Q1008 NOSIG
  • 162030Z AUTO 19003KT CAVOK 16/09 Q1008 NOSIG
  • 162000Z AUTO 21004KT CAVOK 16/10 Q1007 NOSIG
  • 161930Z AUTO 22005KT CAVOK 16/10 Q1007 NOSIG
  • 161900Z AUTO 22006KT CAVOK 17/09 Q1007 NOSIG
  • 161830Z AUTO 23008KT CAVOK 17/09 Q1007 NOSIG
  • 161800Z AUTO 24009KT 9999 FEW041 BKN062 18/09 Q1007 NOSIG
  • 161730Z AUTO 24010KT 210V270 9999 SCT039 BKN047 19/10 Q1006 NOSIG

TAF TAF LFQQ
Valide du 16 à 18h jusqu'au 18 à 00h UTC


161700Z 1618/1724 23006KT 9999 BKN020
PROB40
TEMPO 1700/1706 4500 SHRA BKN006 BKN013TCU
PROB30
TEMPO 1700/1704 BR OVC002
TEMPO 1711/1719 4000 SHRA SCT015 BKN025TCU
PROB40 1711/1715 2000 TSRA SCT015 BKN025CB
BECMG 1715/1719 04005KT
ATIS : +33 3 20 16 19 54



MET'MAP, la Météo Aéronautique d'un coup d'oeil ! - Copyright ORBIFLY Décembre 2007 - Disclaimer

ORBIFLY MET'MAP TEAM :

Programmation & Développement : Alexandra Zaïnal
Sur une idée originale de : Baudouin d'Aumeries
Soutien technique & logistique : Manuel Goepfert
Assistance : Marc-Olivier Méhu




SOURCES & CREDITS :

   NOAA